createdAt,value
2023-01-11T00:01:50.580Z,1.10
2023-01-11T00:04:18.509Z,1.30
2023-01-11T00:06:46.761Z,1.33
2023-01-11T00:09:13.950Z,1.30
2023-01-11T00:11:41.136Z,1.20
2023-01-11T00:14:08.210Z,1.33
2023-01-11T00:16:35.345Z,1.27
2023-01-11T00:19:02.837Z,1.30
2023-01-11T00:21:29.939Z,1.30
2023-01-11T00:23:57.020Z,1.10
2023-01-11T00:26:24.191Z,1.63
2023-01-11T00:28:52.657Z,1.00
2023-01-11T00:31:19.876Z,1.53
2023-01-11T00:33:47.019Z,1.40
2023-01-11T00:36:14.066Z,1.10
2023-01-11T00:38:43.787Z,1.33
2023-01-11T00:41:31.052Z,1.43
2023-01-11T00:44:16.897Z,1.30
2023-01-11T00:47:02.629Z,1.50
2023-01-11T00:49:29.834Z,1.30
2023-01-11T00:51:56.990Z,1.30
2023-01-11T00:54:24.601Z,1.40
2023-01-11T00:56:51.835Z,1.13
2023-01-11T00:59:19.144Z,1.10
2023-01-11T01:01:46.410Z,1.20
2023-01-11T01:04:13.592Z,1.20
2023-01-11T01:06:40.922Z,1.30
2023-01-11T01:09:08.200Z,1.20
2023-01-11T01:11:35.309Z,1.10
2023-01-11T01:14:21.143Z,1.30
2023-01-11T01:16:48.679Z,1.03
2023-01-11T01:19:17.202Z,1.50
2023-01-11T01:21:44.470Z,1.33
2023-01-11T01:24:11.716Z,1.23
2023-01-11T01:26:38.940Z,1.20
2023-01-11T01:29:06.334Z,1.50
2023-01-11T01:31:33.524Z,1.20
2023-01-11T01:34:00.675Z,1.20
2023-01-11T01:36:27.890Z,1.20
2023-01-11T01:38:55.004Z,1.40
2023-01-11T01:41:22.177Z,1.20
2023-01-11T01:43:50.961Z,1.40
2023-01-11T01:46:20.189Z,1.27
2023-01-11T01:48:55.048Z,1.40
2023-01-11T01:51:30.814Z,1.40
2023-01-11T01:54:00.453Z,1.37
2023-01-11T01:56:37.888Z,1.80
2023-01-11T01:59:12.970Z,1.30
2023-01-11T02:01:50.096Z,1.27
2023-01-11T02:04:28.559Z,1.30
2023-01-11T02:07:02.964Z,1.20
2023-01-11T02:09:51.714Z,1.20
2023-01-11T02:12:19.402Z,1.20
2023-01-11T02:14:48.036Z,1.20
2023-01-11T02:17:15.274Z,1.37
2023-01-11T02:19:54.300Z,1.60
2023-01-11T02:22:55.319Z,1.23
2023-01-11T02:25:31.246Z,1.00
2023-01-11T02:28:02.069Z,1.00
2023-01-11T02:30:35.129Z,1.40
2023-01-11T02:33:23.152Z,1.20
2023-01-11T02:36:05.662Z,1.17
2023-01-11T02:38:43.287Z,1.10
2023-01-11T02:42:17.149Z,0.90
2023-01-11T02:45:15.986Z,1.03
2023-01-11T02:47:58.376Z,1.30
2023-01-11T02:50:44.128Z,1.00
2023-01-11T02:53:31.428Z,1.40
2023-01-11T02:56:03.537Z,1.17
2023-01-11T02:58:36.340Z,1.23
2023-01-11T03:01:04.585Z,1.43
2023-01-11T03:03:33.669Z,1.50
2023-01-11T03:06:26.911Z,1.33
2023-01-11T03:09:27.031Z,1.33
2023-01-11T03:12:46.450Z,1.63
2023-01-11T03:15:31.357Z,1.70
2023-01-11T03:18:15.213Z,1.40
2023-01-11T03:20:50.931Z,1.60
2023-01-11T03:23:27.032Z,2.07
2023-01-11T03:26:21.684Z,2.30
2023-01-11T03:29:19.386Z,2.23
2023-01-11T03:31:54.249Z,1.97
2023-01-11T03:34:37.345Z,1.87
2023-01-11T03:37:42.146Z,2.13
2023-01-11T03:40:37.976Z,2.07
2023-01-11T03:43:11.343Z,2.00
2023-01-11T03:45:58.996Z,2.40
2023-01-11T03:48:50.034Z,2.37
2023-01-11T03:51:22.473Z,2.17
2023-01-11T03:53:51.028Z,2.63
2023-01-11T03:56:24.685Z,2.37
2023-01-11T03:58:51.780Z,2.40
2023-01-11T04:01:18.945Z,2.40
2023-01-11T04:03:46.112Z,2.40
2023-01-11T04:06:13.716Z,2.70
2023-01-11T04:08:40.805Z,2.20
2023-01-11T04:11:07.991Z,2.40
2023-01-11T04:13:35.260Z,2.57
2023-01-11T04:16:02.505Z,2.67
2023-01-11T04:18:29.772Z,2.50
2023-01-11T04:20:56.852Z,2.63
2023-01-11T04:23:23.993Z,2.37
2023-01-11T04:25:51.148Z,2.70
2023-01-11T04:28:18.209Z,3.00
2023-01-11T04:30:45.286Z,2.60
2023-01-11T04:33:13.437Z,2.53
2023-01-11T04:35:40.551Z,2.43
2023-01-11T04:38:07.649Z,2.33
2023-01-11T04:40:34.821Z,2.90
2023-01-11T04:43:02.538Z,2.63
2023-01-11T04:45:32.491Z,3.03
2023-01-11T04:47:59.881Z,3.07
2023-01-11T04:50:27.650Z,3.30
2023-01-11T04:52:54.845Z,2.53
2023-01-11T04:55:22.060Z,2.97
2023-01-11T04:57:49.271Z,2.73
2023-01-11T05:00:16.736Z,2.90
2023-01-11T05:02:43.915Z,2.63
2023-01-11T05:05:12.145Z,2.70
2023-01-11T05:07:39.752Z,2.80
2023-01-11T05:10:07.333Z,2.50
2023-01-11T05:12:34.473Z,2.33
2023-01-11T05:15:01.599Z,2.60
2023-01-11T05:17:28.744Z,2.60
2023-01-11T05:19:55.891Z,2.43
2023-01-11T05:22:23.083Z,2.80
2023-01-11T05:24:50.178Z,2.40
2023-01-11T05:27:17.237Z,2.50
2023-01-11T05:29:44.397Z,2.20
2023-01-11T05:32:12.447Z,2.77
2023-01-11T05:34:39.585Z,2.30
2023-01-11T05:37:06.690Z,2.90
2023-01-11T05:39:33.837Z,2.73
2023-01-11T05:42:00.969Z,2.90
2023-01-11T05:44:46.732Z,3.20
2023-01-11T05:47:13.775Z,3.27
2023-01-11T05:49:40.878Z,2.90
2023-01-11T05:52:08.011Z,3.33
2023-01-11T05:54:35.215Z,3.30
2023-01-11T05:57:02.335Z,3.23
2023-01-11T05:59:32.036Z,3.57
2023-01-11T06:01:59.693Z,3.40
2023-01-11T06:04:27.577Z,2.87
2023-01-11T06:06:54.818Z,3.17
2023-01-11T06:09:22.396Z,3.10
2023-01-11T06:11:50.673Z,3.07
2023-01-11T06:14:17.938Z,3.17
2023-01-11T06:16:45.515Z,3.10
2023-01-11T06:19:12.694Z,2.80
2023-01-11T06:21:40.003Z,2.50
2023-01-11T06:24:07.420Z,2.50
2023-01-11T06:26:34.811Z,2.60
2023-01-11T06:29:02.003Z,2.80
2023-01-11T06:31:29.132Z,2.80
2023-01-11T06:33:56.246Z,2.43
2023-01-11T06:36:23.406Z,2.37
2023-01-11T06:38:52.153Z,2.67
2023-01-11T06:41:19.370Z,2.57
2023-01-11T06:43:46.963Z,2.80
2023-01-11T06:46:16.076Z,2.47
2023-01-11T06:48:44.053Z,2.43
2023-01-11T06:51:13.792Z,2.47
2023-01-11T06:53:42.299Z,2.73
2023-01-11T06:56:14.339Z,2.77
2023-01-11T06:58:41.666Z,2.80
2023-01-11T07:01:09.042Z,2.67
2023-01-11T07:03:36.559Z,2.63
2023-01-11T07:06:04.577Z,2.73
2023-01-11T07:08:31.736Z,2.80
2023-01-11T07:10:58.965Z,2.40
2023-01-11T07:13:26.181Z,2.93
2023-01-11T07:15:57.943Z,2.90
2023-01-11T07:18:25.397Z,2.80
2023-01-11T07:20:52.532Z,2.80
2023-01-11T07:23:19.851Z,3.03
2023-01-11T07:25:48.674Z,3.20
2023-01-11T07:28:15.803Z,3.07
2023-01-11T07:30:56.608Z,2.93
2023-01-11T07:33:26.139Z,3.20
2023-01-11T07:35:53.872Z,3.20
2023-01-11T07:38:21.392Z,3.17
2023-01-11T07:40:48.569Z,3.17
2023-01-11T07:43:15.904Z,3.30
2023-01-11T07:45:46.752Z,3.40
2023-01-11T07:48:15.483Z,3.70
2023-01-11T07:50:45.106Z,3.13
2023-01-11T07:53:13.333Z,3.30
2023-01-11T07:55:41.423Z,3.57
2023-01-11T07:58:12.904Z,4.00
2023-01-11T08:00:41.269Z,3.77
2023-01-11T08:03:08.994Z,3.57
2023-01-11T08:05:36.277Z,3.37
2023-01-11T08:08:04.101Z,3.43
2023-01-11T08:10:31.348Z,3.77
2023-01-11T08:13:17.572Z,3.67
2023-01-11T08:15:45.048Z,3.40
2023-01-11T08:18:13.206Z,3.53
2023-01-11T08:20:40.836Z,3.53
2023-01-11T08:23:10.367Z,3.83
2023-01-11T08:25:38.309Z,3.00
2023-01-11T08:28:07.535Z,3.50
2023-01-11T08:30:35.610Z,3.60
2023-01-11T08:33:03.115Z,2.97
2023-01-11T08:35:30.898Z,2.77
2023-01-11T08:37:58.106Z,3.00
2023-01-11T08:40:25.840Z,2.90
2023-01-11T08:42:57.256Z,2.47
2023-01-11T08:45:24.924Z,2.90
2023-01-11T08:47:52.411Z,2.37
2023-01-11T08:50:21.225Z,2.40
2023-01-11T08:52:51.375Z,2.30
2023-01-11T08:55:19.562Z,2.70
2023-01-11T08:57:47.012Z,2.43
2023-01-11T09:00:15.295Z,2.20
2023-01-11T09:02:42.703Z,2.23
2023-01-11T09:05:10.335Z,2.03
2023-01-11T09:07:37.642Z,1.87
2023-01-11T09:10:05.458Z,1.57
2023-01-11T09:12:33.051Z,1.70
2023-01-11T09:15:00.502Z,1.70
2023-01-11T09:17:28.172Z,1.53
2023-01-11T09:19:55.345Z,1.80
2023-01-11T09:22:22.510Z,1.47
2023-01-11T09:24:49.922Z,1.67
2023-01-11T09:27:17.344Z,1.57
2023-01-11T09:29:44.768Z,1.60
2023-01-11T09:32:12.184Z,1.30
2023-01-11T09:34:39.418Z,1.30
2023-01-11T09:37:07.317Z,1.43
2023-01-11T09:39:35.354Z,1.20
2023-01-11T09:42:39.802Z,1.10
2023-01-11T09:45:28.585Z,1.30
2023-01-11T09:48:12.709Z,1.70
2023-01-11T09:50:45.891Z,1.47
2023-01-11T09:53:22.637Z,1.23
2023-01-11T09:55:52.276Z,1.60
2023-01-11T09:58:46.756Z,1.40
2023-01-11T10:01:38.867Z,1.40
2023-01-11T10:04:37.565Z,1.43
2023-01-11T10:07:38.105Z,1.50
2023-01-11T10:18:32.891Z,1.70
2023-01-11T10:19:54.481Z,1.67
2023-01-11T10:22:28.006Z,1.40
2023-01-11T10:25:33.718Z,1.30
2023-01-11T10:28:25.168Z,1.37
2023-01-11T10:30:58.867Z,1.90
2023-01-11T10:34:02.605Z,1.70
2023-01-11T10:37:07.140Z,1.60
2023-01-11T10:39:59.471Z,1.90
2023-01-11T10:42:31.505Z,1.70
2023-01-11T10:45:05.214Z,1.70
2023-01-11T10:47:44.886Z,1.90
2023-01-11T10:50:31.557Z,1.73
2023-01-11T10:53:07.736Z,1.90
2023-01-11T10:55:53.500Z,1.50
2023-01-11T10:58:31.609Z,2.10
2023-01-11T11:01:12.568Z,2.30
2023-01-11T11:04:00.741Z,2.33
2023-01-11T11:06:59.731Z,2.00
2023-01-11T11:09:45.452Z,1.70
2023-01-11T11:12:23.400Z,1.90
2023-01-11T11:15:30.854Z,2.50
2023-01-11T11:17:58.011Z,1.80
2023-01-11T11:20:30.571Z,2.20
2023-01-11T11:22:58.205Z,2.20
2023-01-11T11:25:35.718Z,1.97
2023-01-11T11:28:07.898Z,2.00
2023-01-11T11:30:38.546Z,1.90
2023-01-11T11:33:24.942Z,2.00
2023-01-11T11:35:58.533Z,2.07
2023-01-11T11:38:31.330Z,2.30
2023-01-11T11:41:04.145Z,2.30
2023-01-11T11:43:36.453Z,2.20
2023-01-11T11:46:19.250Z,2.33
2023-01-11T11:49:10.735Z,2.70
2023-01-11T11:51:39.311Z,2.40
2023-01-11T11:54:06.507Z,2.40
2023-01-11T11:56:37.849Z,2.43
2023-01-11T11:59:16.079Z,2.27
2023-01-11T12:01:47.362Z,2.20
2023-01-11T12:04:23.412Z,2.43
2023-01-11T12:07:16.171Z,2.87
2023-01-11T12:09:57.467Z,3.00
2023-01-11T12:12:27.815Z,2.57
2023-01-11T12:15:16.809Z,2.67
2023-01-11T12:17:44.306Z,2.63
2023-01-11T12:20:23.482Z,2.70
2023-01-11T12:23:09.122Z,2.80
2023-01-11T12:26:05.483Z,2.80
2023-01-11T12:29:03.412Z,2.70
2023-01-11T12:31:39.426Z,3.80
2023-01-11T12:34:21.412Z,2.93
2023-01-11T12:37:26.969Z,3.17
2023-01-11T12:40:19.932Z,2.90
2023-01-11T12:43:11.639Z,2.93
2023-01-11T12:45:49.539Z,3.00
2023-01-11T12:48:30.288Z,2.80
2023-01-11T12:51:14.075Z,2.87
2023-01-11T12:53:59.508Z,2.90
2023-01-11T12:56:36.346Z,3.00
2023-01-11T12:59:32.550Z,2.40
2023-01-11T13:02:29.038Z,3.20
2023-01-11T13:05:23.759Z,2.70
2023-01-11T13:08:08.852Z,2.53
2023-01-11T13:10:59.134Z,2.60
2023-01-11T13:13:44.577Z,2.77
2023-01-11T13:16:37.727Z,2.60
2023-01-11T13:19:12.060Z,2.53
2023-01-11T13:21:44.571Z,2.90
2023-01-11T13:24:16.909Z,2.77
2023-01-11T13:26:50.639Z,2.70
2023-01-11T13:29:39.670Z,2.40
2023-01-11T13:32:19.951Z,2.40
2023-01-11T13:34:50.035Z,2.53
2023-01-11T13:37:52.323Z,2.90
2023-01-11T13:40:35.681Z,1.80
2023-01-11T13:43:19.945Z,2.63
2023-01-11T13:46:14.225Z,2.20
2023-01-11T13:48:50.219Z,2.40
2023-01-11T13:51:38.851Z,2.20
2023-01-11T13:54:14.363Z,2.47
2023-01-11T13:56:43.554Z,1.83
2023-01-11T13:59:36.955Z,2.07
2023-01-11T14:02:39.456Z,2.03
2023-01-11T14:05:22.870Z,2.20
2023-01-11T14:08:27.434Z,2.00
2023-01-11T14:10:57.470Z,1.90
2023-01-11T14:13:57.998Z,2.43
2023-01-11T14:16:38.913Z,2.20
2023-01-11T14:19:12.901Z,2.23
2023-01-11T14:22:12.139Z,2.50
2023-01-11T14:24:52.572Z,1.67
2023-01-11T14:27:40.720Z,1.80
2023-01-11T14:30:11.035Z,2.27
2023-01-11T14:33:00.265Z,2.00
2023-01-11T14:35:30.203Z,2.30
2023-01-11T14:38:21.853Z,1.93
2023-01-11T14:41:04.906Z,1.80
2023-01-11T14:43:47.501Z,1.93
2023-01-11T14:46:36.341Z,1.70
2023-01-11T14:49:28.596Z,1.80
2023-01-11T14:51:55.702Z,1.53
2023-01-11T14:54:32.939Z,1.80
2023-01-11T14:57:00.625Z,1.73
2023-01-11T14:59:30.495Z,1.63
2023-01-11T15:02:03.947Z,1.37
2023-01-11T15:04:31.241Z,1.63
2023-01-11T15:06:59.171Z,1.80
2023-01-11T15:09:47.309Z,1.67
2023-01-11T15:12:19.597Z,1.60
2023-01-11T15:15:01.087Z,1.50
2023-01-11T15:17:48.018Z,1.70
2023-01-11T15:20:17.325Z,1.60
2023-01-11T15:22:45.939Z,1.70
2023-01-11T15:25:23.819Z,1.40
2023-01-11T15:27:52.138Z,1.60
2023-01-11T15:30:31.716Z,1.80
2023-01-11T15:33:17.563Z,1.23
2023-01-11T15:35:56.989Z,1.30
2023-01-11T15:38:53.597Z,1.27
2023-01-11T15:42:06.746Z,1.43
2023-01-11T15:45:11.257Z,1.63
2023-01-11T15:47:41.192Z,1.10
2023-01-11T15:50:26.980Z,1.40
2023-01-11T15:53:20.366Z,1.20
2023-01-11T15:56:10.851Z,1.37
2023-01-11T15:58:57.279Z,1.47
2023-01-11T16:01:29.691Z,1.20
2023-01-11T16:04:06.550Z,1.20
2023-01-11T16:06:54.235Z,1.07
2023-01-11T16:09:21.391Z,1.33
2023-01-11T16:12:10.195Z,1.30
2023-01-11T16:14:58.383Z,1.70
2023-01-11T16:17:26.474Z,1.50
2023-01-11T16:19:57.105Z,1.00
2023-01-11T16:22:28.698Z,1.10
2023-01-11T16:25:01.589Z,1.10
2023-01-11T16:27:35.088Z,1.10
2023-01-11T16:30:02.862Z,1.20
2023-01-11T16:32:35.203Z,1.20
2023-01-11T16:35:03.741Z,1.20
2023-01-11T16:37:39.216Z,1.47
2023-01-11T16:40:28.222Z,1.40
2023-01-11T16:43:05.631Z,1.37
2023-01-11T16:45:56.544Z,1.13
2023-01-11T16:48:28.678Z,1.27
2023-01-11T16:51:02.551Z,1.33
2023-01-11T16:53:45.284Z,1.23
2023-01-11T16:56:16.799Z,1.30
2023-01-11T16:58:44.114Z,1.37
2023-01-11T17:01:15.580Z,1.30
2023-01-11T17:03:54.684Z,1.40
2023-01-11T17:06:26.030Z,1.40
2023-01-11T17:08:56.534Z,1.57
2023-01-11T17:11:37.720Z,1.40
2023-01-11T17:14:14.778Z,1.50
2023-01-11T17:16:46.084Z,1.50
2023-01-11T17:19:20.020Z,1.43
2023-01-11T17:21:52.524Z,1.20
2023-01-11T17:24:26.196Z,1.10
2023-01-11T17:26:58.056Z,1.00
2023-01-11T17:29:31.980Z,1.13
2023-01-11T17:32:01.481Z,1.20
2023-01-11T17:34:36.823Z,1.37
2023-01-11T17:37:12.930Z,1.40
2023-01-11T17:39:44.904Z,1.57
2023-01-11T17:42:33.284Z,1.37
2023-01-11T17:45:13.039Z,1.30
2023-01-11T17:47:42.864Z,1.23
2023-01-11T17:50:28.224Z,1.80
2023-01-11T17:53:17.211Z,1.37
2023-01-11T17:56:00.692Z,1.47
2023-01-11T17:58:37.589Z,1.23
2023-01-11T18:01:08.250Z,1.40
2023-01-11T18:03:50.944Z,1.43
2023-01-11T18:06:27.739Z,1.60
2023-01-11T18:08:56.738Z,1.40
2023-01-11T18:11:36.217Z,1.67
2023-01-11T18:14:16.639Z,1.40
2023-01-11T18:16:59.139Z,1.60
2023-01-11T18:19:47.365Z,1.30
2023-01-11T18:22:29.924Z,1.70
2023-01-11T18:24:59.513Z,1.70
2023-01-11T18:27:30.173Z,1.73
2023-01-11T18:30:06.383Z,1.73
2023-01-11T18:32:43.480Z,1.43
2023-01-11T18:35:18.925Z,1.77
2023-01-11T18:37:46.753Z,1.53
2023-01-11T18:40:15.573Z,1.60
2023-01-11T18:42:46.224Z,2.00
2023-01-11T18:45:14.139Z,1.90
2023-01-11T18:47:41.616Z,1.70
2023-01-11T18:50:10.951Z,1.77
2023-01-11T18:52:38.117Z,1.90
2023-01-11T18:55:06.672Z,1.80
2023-01-11T18:57:34.219Z,2.17
2023-01-11T19:00:02.763Z,1.87
2023-01-11T19:02:35.945Z,1.70
2023-01-11T19:05:03.106Z,1.60
2023-01-11T19:07:30.245Z,1.70
2023-01-11T19:09:59.433Z,2.43
2023-01-11T19:12:27.243Z,1.77
2023-01-11T19:14:54.366Z,1.77
2023-01-11T19:17:22.113Z,2.13
2023-01-11T19:19:49.368Z,2.10
2023-01-11T19:22:16.693Z,2.37
2023-01-11T19:24:43.883Z,2.00
2023-01-11T19:27:13.712Z,2.27
2023-01-11T19:29:41.383Z,2.27
2023-01-11T19:32:08.953Z,2.00
2023-01-11T19:34:36.452Z,2.27
2023-01-11T19:37:03.891Z,2.20
2023-01-11T19:39:31.364Z,2.50
2023-01-11T19:42:00.012Z,2.03
2023-01-11T19:44:40.635Z,2.47
2023-01-11T19:47:12.962Z,2.77
2023-01-11T19:49:41.839Z,2.00
2023-01-11T19:52:14.305Z,2.20
2023-01-11T19:54:42.883Z,2.10
2023-01-11T19:57:18.044Z,2.00
2023-01-11T19:59:45.520Z,2.80
2023-01-11T20:02:14.296Z,2.60
2023-01-11T20:04:42.398Z,2.57
2023-01-11T20:07:11.402Z,2.63
2023-01-11T20:09:38.754Z,2.83
2023-01-11T20:12:09.264Z,2.30
2023-01-11T20:14:40.816Z,2.20
2023-01-11T20:17:09.336Z,2.60
2023-01-11T20:19:37.340Z,2.40
2023-01-11T20:22:04.841Z,2.20
2023-01-11T20:24:32.241Z,2.17
2023-01-11T20:27:01.232Z,2.40
2023-01-11T20:29:29.313Z,2.27
2023-01-11T20:32:13.309Z,2.80
2023-01-11T20:34:44.385Z,2.90
2023-01-11T20:37:11.622Z,3.10
2023-01-11T20:39:39.077Z,2.50
2023-01-11T20:42:06.584Z,2.50
2023-01-11T20:44:34.146Z,2.23
2023-01-11T20:47:01.524Z,2.67
2023-01-11T20:49:30.094Z,2.87
2023-01-11T20:51:57.465Z,3.20
2023-01-11T20:54:24.761Z,2.73
2023-01-11T20:56:52.232Z,2.63
2023-01-11T20:59:20.705Z,2.93
2023-01-11T21:01:50.291Z,2.97
2023-01-11T21:04:18.542Z,2.60
2023-01-11T21:06:48.414Z,2.70
2023-01-11T21:09:17.861Z,3.70
2023-01-11T21:11:52.616Z,2.60
2023-01-11T21:14:21.118Z,2.90
2023-01-11T21:16:48.942Z,3.37
2023-01-11T21:19:17.779Z,3.03
2023-01-11T21:21:45.021Z,3.00
2023-01-11T21:24:14.295Z,2.63
2023-01-11T21:26:42.716Z,3.60
2023-01-11T21:29:11.836Z,2.43
2023-01-11T21:31:40.275Z,2.93
2023-01-11T21:34:08.499Z,3.10
2023-01-11T21:36:35.658Z,3.10
2023-01-11T21:39:03.497Z,3.13
2023-01-11T21:41:51.268Z,2.90
2023-01-11T21:44:19.728Z,2.93
2023-01-11T21:46:47.381Z,2.90
2023-01-11T21:49:15.331Z,3.10
2023-01-11T21:51:43.524Z,3.10
2023-01-11T21:54:13.334Z,3.03
2023-01-11T21:56:42.491Z,3.40
2023-01-11T21:59:10.260Z,3.87
2023-01-11T22:01:39.437Z,3.13
2023-01-11T22:04:12.158Z,3.73
2023-01-11T22:06:41.365Z,3.37
2023-01-11T22:09:10.320Z,3.20
2023-01-11T22:11:37.858Z,3.30
2023-01-11T22:14:06.773Z,3.43
2023-01-11T22:16:35.123Z,3.10
2023-01-11T22:19:06.226Z,3.50
2023-01-11T22:21:33.410Z,3.47
2023-01-11T22:24:00.775Z,3.30
2023-01-11T22:26:33.769Z,3.23
2023-01-11T22:29:15.306Z,3.43
2023-01-11T22:31:51.443Z,3.73
2023-01-11T22:34:19.761Z,3.43
2023-01-11T22:36:47.718Z,3.30
2023-01-11T22:39:16.659Z,3.00
2023-01-11T22:41:46.117Z,2.73
2023-01-11T22:44:14.167Z,2.90
2023-01-11T22:46:41.903Z,3.43
2023-01-11T22:49:09.746Z,2.70
2023-01-11T22:51:37.156Z,3.00
2023-01-11T22:54:05.156Z,3.20
2023-01-11T22:56:33.374Z,3.20
2023-01-11T22:59:00.969Z,3.37
2023-01-11T23:01:30.956Z,3.23
2023-01-11T23:03:58.942Z,3.40
2023-01-11T23:06:34.950Z,3.20
2023-01-11T23:09:03.078Z,3.00
2023-01-11T23:11:53.933Z,2.70
2023-01-11T23:14:21.790Z,3.17
2023-01-11T23:16:50.794Z,3.30
2023-01-11T23:19:20.026Z,3.23
2023-01-11T23:21:48.078Z,2.90
2023-01-11T23:24:16.869Z,2.97
2023-01-11T23:26:45.300Z,3.03
2023-01-11T23:29:13.106Z,2.53
2023-01-11T23:31:40.550Z,2.87
2023-01-11T23:34:08.656Z,2.53
2023-01-11T23:36:41.816Z,2.90
2023-01-11T23:39:13.226Z,3.40
2023-01-11T23:41:58.850Z,2.73
2023-01-11T23:44:26.238Z,2.83
2023-01-11T23:47:12.016Z,2.80
2023-01-11T23:49:39.645Z,2.80
2023-01-11T23:52:07.274Z,2.97
2023-01-11T23:54:34.857Z,2.77
2023-01-11T23:57:03.935Z,3.43
2023-01-11T23:59:32.389Z,3.40
